sensor_id;sensor_type;location;lat;lon;timestamp;P1;durP1;ratioP1;P2;durP2;ratioP2
40022;SDS011;25713;-35.352;149.036;2023-02-20T00:00:20;10.88;;;5.13;;
40022;SDS011;25713;-35.352;149.036;2023-02-20T00:02:51;6.88;;;4.75;;
40022;SDS011;25713;-35.352;149.036;2023-02-20T00:05:24;7.88;;;5.30;;
40022;SDS011;25713;-35.352;149.036;2023-02-20T00:07:53;6.72;;;4.93;;
40022;SDS011;25713;-35.352;149.036;2023-02-20T00:10:23;8.45;;;4.60;;
40022;SDS011;25713;-35.352;149.036;2023-02-20T00:12:53;9.75;;;4.57;;
40022;SDS011;25713;-35.352;149.036;2023-02-20T00:15:22;9.23;;;4.78;;
40022;SDS011;25713;-35.352;149.036;2023-02-20T00:17:51;9.73;;;5.15;;
40022;SDS011;25713;-35.352;149.036;2023-02-20T00:20:23;9.38;;;5.00;;
40022;SDS011;25713;-35.352;149.036;2023-02-20T00:22:54;8.90;;;5.07;;
40022;SDS011;25713;-35.352;149.036;2023-02-20T00:25:23;9.70;;;5.82;;
40022;SDS011;25713;-35.352;149.036;2023-02-20T00:27:53;6.85;;;4.93;;
40022;SDS011;25713;-35.352;149.036;2023-02-20T00:30:22;10.90;;;5.03;;
40022;SDS011;25713;-35.352;149.036;2023-02-20T00:32:53;8.18;;;5.03;;
40022;SDS011;25713;-35.352;149.036;2023-02-20T00:35:26;7.70;;;5.30;;
40022;SDS011;25713;-35.352;149.036;2023-02-20T00:37:56;6.93;;;4.95;;
40022;SDS011;25713;-35.352;149.036;2023-02-20T00:40:26;9.88;;;4.82;;
40022;SDS011;25713;-35.352;149.036;2023-02-20T00:42:55;5.70;;;4.32;;
40022;SDS011;25713;-35.352;149.036;2023-02-20T00:45:24;7.55;;;4.68;;
40022;SDS011;25713;-35.352;149.036;2023-02-20T00:47:56;9.13;;;4.80;;
40022;SDS011;25713;-35.352;149.036;2023-02-20T00:50:27;5.10;;;3.72;;
40022;SDS011;25713;-35.352;149.036;2023-02-20T00:52:56;4.93;;;4.27;;
40022;SDS011;25713;-35.352;149.036;2023-02-20T00:55:26;11.77;;;4.40;;
40022;SDS011;25713;-35.352;149.036;2023-02-20T00:57:55;10.18;;;4.97;;
40022;SDS011;25713;-35.352;149.036;2023-02-20T01:00:25;7.40;;;4.43;;
40022;SDS011;25713;-35.352;149.036;2023-02-20T01:02:55;6.03;;;4.50;;
40022;SDS011;25713;-35.352;149.036;2023-02-20T01:05:28;6.78;;;4.03;;
40022;SDS011;25713;-35.352;149.036;2023-02-20T01:07:58;5.22;;;4.30;;
40022;SDS011;25713;-35.352;149.036;2023-02-20T01:10:28;8.60;;;4.10;;
40022;SDS011;25713;-35.352;149.036;2023-02-20T01:12:58;12.90;;;4.53;;
40022;SDS011;25713;-35.352;149.036;2023-02-20T01:15:27;6.63;;;4.03;;
40022;SDS011;25713;-35.352;149.036;2023-02-20T01:17:57;5.72;;;3.90;;
40022;SDS011;25713;-35.352;149.036;2023-02-20T01:20:29;7.65;;;3.65;;
40022;SDS011;25713;-35.352;149.036;2023-02-20T01:22:58;6.55;;;3.75;;
40022;SDS011;25713;-35.352;149.036;2023-02-20T01:25:28;6.80;;;3.85;;
40022;SDS011;25713;-35.352;149.036;2023-02-20T01:27:57;5.40;;;3.42;;
40022;SDS011;25713;-35.352;149.036;2023-02-20T01:30:27;8.60;;;3.58;;
40022;SDS011;25713;-35.352;149.036;2023-02-20T01:32:56;8.60;;;4.00;;
40022;SDS011;25713;-35.352;149.036;2023-02-20T01:35:26;8.00;;;3.83;;
40022;SDS011;25713;-35.352;149.036;2023-02-20T01:37:57;9.40;;;3.40;;
40022;SDS011;25713;-35.352;149.036;2023-02-20T01:40:27;7.60;;;3.67;;
40022;SDS011;25713;-35.352;149.036;2023-02-20T01:42:56;5.07;;;2.92;;
40022;SDS011;25713;-35.352;149.036;2023-02-20T01:45:32;5.50;;;3.40;;
40022;SDS011;25713;-35.352;149.036;2023-02-20T01:48:03;6.72;;;3.30;;
40022;SDS011;25713;-35.352;149.036;2023-02-20T01:50:36;6.70;;;3.78;;
40022;SDS011;25713;-35.352;149.036;2023-02-20T01:53:08;5.15;;;3.40;;
40022;SDS011;25713;-35.352;149.036;2023-02-20T01:55:41;7.50;;;3.92;;
40022;SDS011;25713;-35.352;149.036;2023-02-20T01:58:15;3.85;;;3.25;;
40022;SDS011;25713;-35.352;149.036;2023-02-20T02:00:47;5.28;;;2.92;;
40022;SDS011;25713;-35.352;149.036;2023-02-20T02:03:18;6.65;;;3.50;;
40022;SDS011;25713;-35.352;149.036;2023-02-20T02:05:53;4.72;;;2.58;;
40022;SDS011;25713;-35.352;149.036;2023-02-20T02:08:27;6.70;;;3.08;;
40022;SDS011;25713;-35.352;149.036;2023-02-20T02:10:58;4.10;;;2.50;;
40022;SDS011;25713;-35.352;149.036;2023-02-20T02:13:30;3.15;;;2.25;;
40022;SDS011;25713;-35.352;149.036;2023-02-20T02:16:10;3.15;;;2.13;;
40022;SDS011;25713;-35.352;149.036;2023-02-20T02:18:52;4.03;;;2.35;;
40022;SDS011;25713;-35.352;149.036;2023-02-20T02:24:54;3.70;;;2.08;;
40022;SDS011;25713;-35.352;149.036;2023-02-20T02:28:00;5.57;;;2.22;;
40022;SDS011;25713;-35.352;149.036;2023-02-20T02:30:51;3.72;;;2.20;;
40022;SDS011;25713;-35.352;149.036;2023-02-20T02:36:52;3.35;;;2.13;;
40022;SDS011;25713;-35.352;149.036;2023-02-20T02:39:34;4.53;;;1.90;;
40022;SDS011;25713;-35.352;149.036;2023-02-20T02:42:13;5.82;;;1.90;;
40022;SDS011;25713;-35.352;149.036;2023-02-20T02:44:49;5.00;;;2.20;;
40022;SDS011;25713;-35.352;149.036;2023-02-20T02:47:24;6.38;;;2.03;;
40022;SDS011;25713;-35.352;149.036;2023-02-20T02:49:57;2.58;;;1.95;;
40022;SDS011;25713;-35.352;149.036;2023-02-20T02:52:31;5.57;;;2.30;;
40022;SDS011;25713;-35.352;149.036;2023-02-20T02:55:02;2.50;;;2.03;;
40022;SDS011;25713;-35.352;149.036;2023-02-20T02:57:32;5.68;;;2.22;;
40022;SDS011;25713;-35.352;149.036;2023-02-20T03:00:03;3.70;;;2.28;;
40022;SDS011;25713;-35.352;149.036;2023-02-20T03:02:36;2.53;;;2.03;;
40022;SDS011;25713;-35.352;149.036;2023-02-20T03:05:11;3.05;;;2.03;;
40022;SDS011;25713;-35.352;149.036;2023-02-20T03:07:48;7.50;;;2.00;;
40022;SDS011;25713;-35.352;149.036;2023-02-20T03:10:22;4.22;;;2.00;;
40022;SDS011;25713;-35.352;149.036;2023-02-20T03:12:52;5.13;;;2.30;;
40022;SDS011;25713;-35.352;149.036;2023-02-20T03:15:26;4.35;;;1.92;;
40022;SDS011;25713;-35.352;149.036;2023-02-20T03:18:00;2.58;;;1.92;;
40022;SDS011;25713;-35.352;149.036;2023-02-20T03:20:39;3.58;;;1.60;;
40022;SDS011;25713;-35.352;149.036;2023-02-20T03:23:15;2.40;;;1.70;;
40022;SDS011;25713;-35.352;149.036;2023-02-20T03:25:51;3.00;;;1.80;;
40022;SDS011;25713;-35.352;149.036;2023-02-20T03:28:25;3.72;;;1.67;;
40022;SDS011;25713;-35.352;149.036;2023-02-20T03:30:59;3.47;;;1.90;;
40022;SDS011;25713;-35.352;149.036;2023-02-20T03:33:33;3.40;;;1.60;;
40022;SDS011;25713;-35.352;149.036;2023-02-20T03:36:06;3.58;;;1.77;;
40022;SDS011;25713;-35.352;149.036;2023-02-20T03:38:42;2.88;;;1.75;;
40022;SDS011;25713;-35.352;149.036;2023-02-20T03:41:14;3.00;;;1.92;;
40022;SDS011;25713;-35.352;149.036;2023-02-20T03:43:46;2.88;;;1.55;;
40022;SDS011;25713;-35.352;149.036;2023-02-20T03:46:19;3.22;;;1.45;;
40022;SDS011;25713;-35.352;149.036;2023-02-20T03:48:52;2.13;;;1.45;;
40022;SDS011;25713;-35.352;149.036;2023-02-20T03:51:26;1.88;;;1.60;;
40022;SDS011;25713;-35.352;149.036;2023-02-20T03:54:05;3.58;;;1.73;;
40022;SDS011;25713;-35.352;149.036;2023-02-20T03:56:36;3.25;;;1.60;;
40022;SDS011;25713;-35.352;149.036;2023-02-20T03:59:11;5.35;;;1.95;;
40022;SDS011;25713;-35.352;149.036;2023-02-20T04:01:45;2.45;;;1.60;;
40022;SDS011;25713;-35.352;149.036;2023-02-20T04:04:17;1.50;;;1.40;;
40022;SDS011;25713;-35.352;149.036;2023-02-20T04:06:48;2.15;;;1.40;;
40022;SDS011;25713;-35.352;149.036;2023-02-20T04:09:22;1.85;;;1.50;;
40022;SDS011;25713;-35.352;149.036;2023-02-20T04:11:57;5.55;;;1.80;;
40022;SDS011;25713;-35.352;149.036;2023-02-20T04:14:31;4.22;;;1.65;;
40022;SDS011;25713;-35.352;149.036;2023-02-20T04:17:04;2.08;;;1.60;;
40022;SDS011;25713;-35.352;149.036;2023-02-20T04:19:37;4.35;;;1.50;;
40022;SDS011;25713;-35.352;149.036;2023-02-20T04:22:09;2.33;;;1.30;;
40022;SDS011;25713;-35.352;149.036;2023-02-20T04:24:46;3.33;;;1.70;;
40022;SDS011;25713;-35.352;149.036;2023-02-20T04:27:18;3.97;;;1.60;;
40022;SDS011;25713;-35.352;149.036;2023-02-20T04:29:54;2.80;;;1.58;;
40022;SDS011;25713;-35.352;149.036;2023-02-20T04:32:25;2.00;;;1.30;;
40022;SDS011;25713;-35.352;149.036;2023-02-20T04:34:54;2.03;;;1.15;;
40022;SDS011;25713;-35.352;149.036;2023-02-20T04:37:24;2.47;;;1.30;;
40022;SDS011;25713;-35.352;149.036;2023-02-20T04:39:56;4.68;;;1.50;;
40022;SDS011;25713;-35.352;149.036;2023-02-20T04:42:27;2.20;;;1.42;;
40022;SDS011;25713;-35.352;149.036;2023-02-20T04:44:58;4.68;;;1.35;;
40022;SDS011;25713;-35.352;149.036;2023-02-20T04:47:29;1.88;;;1.33;;
40022;SDS011;25713;-35.352;149.036;2023-02-20T04:49:59;2.17;;;1.20;;
40022;SDS011;25713;-35.352;149.036;2023-02-20T04:52:30;2.65;;;1.45;;
40022;SDS011;25713;-35.352;149.036;2023-02-20T04:55:01;3.65;;;1.27;;
40022;SDS011;25713;-35.352;149.036;2023-02-20T04:57:31;3.75;;;1.20;;
40022;SDS011;25713;-35.352;149.036;2023-02-20T05:00:00;2.38;;;1.20;;
40022;SDS011;25713;-35.352;149.036;2023-02-20T05:02:31;3.97;;;1.08;;
40022;SDS011;25713;-35.352;149.036;2023-02-20T05:05:01;2.28;;;1.38;;
40022;SDS011;25713;-35.352;149.036;2023-02-20T05:07:30;1.83;;;1.30;;
40022;SDS011;25713;-35.352;149.036;2023-02-20T05:10:03;4.95;;;1.20;;
40022;SDS011;25713;-35.352;149.036;2023-02-20T05:12:33;2.65;;;1.30;;
40022;SDS011;25713;-35.352;149.036;2023-02-20T05:15:03;6.78;;;1.58;;
40022;SDS011;25713;-35.352;149.036;2023-02-20T05:17:32;2.78;;;1.60;;
40022;SDS011;25713;-35.352;149.036;2023-02-20T05:20:02;2.22;;;1.50;;
40022;SDS011;25713;-35.352;149.036;2023-02-20T05:22:32;2.83;;;1.08;;
40022;SDS011;25713;-35.352;149.036;2023-02-20T05:25:04;4.00;;;1.38;;
40022;SDS011;25713;-35.352;149.036;2023-02-20T05:30:02;3.63;;;1.33;;
40022;SDS011;25713;-35.352;149.036;2023-02-20T05:32:32;1.85;;;1.10;;
40022;SDS011;25713;-35.352;149.036;2023-02-20T05:35:03;3.25;;;1.40;;
40022;SDS011;25713;-35.352;149.036;2023-02-20T05:37:33;4.25;;;1.38;;
40022;SDS011;25713;-35.352;149.036;2023-02-20T05:40:05;2.38;;;1.50;;
40022;SDS011;25713;-35.352;149.036;2023-02-20T05:42:35;3.38;;;1.35;;
40022;SDS011;25713;-35.352;149.036;2023-02-20T05:45:04;3.72;;;1.48;;
40022;SDS011;25713;-35.352;149.036;2023-02-20T05:47:35;1.85;;;1.45;;
40022;SDS011;25713;-35.352;149.036;2023-02-20T05:50:05;3.08;;;1.55;;
40022;SDS011;25713;-35.352;149.036;2023-02-20T05:52:35;3.72;;;1.50;;
40022;SDS011;25713;-35.352;149.036;2023-02-20T05:55:07;1.50;;;1.40;;
40022;SDS011;25713;-35.352;149.036;2023-02-20T05:57:39;2.85;;;1.55;;
40022;SDS011;25713;-35.352;149.036;2023-02-20T06:00:12;2.17;;;1.30;;
40022;SDS011;25713;-35.352;149.036;2023-02-20T06:02:42;2.78;;;1.50;;
40022;SDS011;25713;-35.352;149.036;2023-02-20T06:05:14;2.50;;;1.55;;
40022;SDS011;25713;-35.352;149.036;2023-02-20T06:07:45;3.75;;;1.60;;
40022;SDS011;25713;-35.352;149.036;2023-02-20T06:10:17;4.15;;;1.60;;
40022;SDS011;25713;-35.352;149.036;2023-02-20T06:15:15;3.25;;;1.65;;
40022;SDS011;25713;-35.352;149.036;2023-02-20T06:17:44;2.20;;;1.50;;
40022;SDS011;25713;-35.352;149.036;2023-02-20T06:20:14;2.83;;;1.60;;
40022;SDS011;25713;-35.352;149.036;2023-02-20T06:22:44;1.80;;;1.50;;
40022;SDS011;25713;-35.352;149.036;2023-02-20T06:25:17;2.78;;;1.70;;
40022;SDS011;25713;-35.352;149.036;2023-02-20T06:27:47;3.20;;;1.70;;
40022;SDS011;25713;-35.352;149.036;2023-02-20T06:30:16;3.03;;;1.50;;
40022;SDS011;25713;-35.352;149.036;2023-02-20T06:32:46;4.78;;;1.70;;
40022;SDS011;25713;-35.352;149.036;2023-02-20T06:35:16;3.17;;;1.75;;
40022;SDS011;25713;-35.352;149.036;2023-02-20T06:37:45;2.38;;;1.67;;
40022;SDS011;25713;-35.352;149.036;2023-02-20T06:40:16;2.08;;;1.60;;
40022;SDS011;25713;-35.352;149.036;2023-02-20T06:42:46;3.53;;;1.60;;
40022;SDS011;25713;-35.352;149.036;2023-02-20T06:45:16;1.67;;;1.58;;
40022;SDS011;25713;-35.352;149.036;2023-02-20T06:47:49;3.80;;;1.70;;
40022;SDS011;25713;-35.352;149.036;2023-02-20T06:50:18;5.93;;;1.90;;
40022;SDS011;25713;-35.352;149.036;2023-02-20T06:52:48;2.33;;;1.63;;
40022;SDS011;25713;-35.352;149.036;2023-02-20T06:55:19;3.33;;;1.80;;
40022;SDS011;25713;-35.352;149.036;2023-02-20T06:57:49;2.17;;;1.52;;
40022;SDS011;25713;-35.352;149.036;2023-02-20T07:00:18;2.90;;;1.83;;
40022;SDS011;25713;-35.352;149.036;2023-02-20T07:02:48;4.60;;;1.70;;
40022;SDS011;25713;-35.352;149.036;2023-02-20T07:05:17;2.60;;;1.80;;
40022;SDS011;25713;-35.352;149.036;2023-02-20T07:07:47;3.85;;;1.55;;
40022;SDS011;25713;-35.352;149.036;2023-02-20T07:10:17;4.53;;;2.00;;
40022;SDS011;25713;-35.352;149.036;2023-02-20T07:12:48;2.70;;;1.95;;
40022;SDS011;25713;-35.352;149.036;2023-02-20T07:15:17;6.50;;;2.00;;
40022;SDS011;25713;-35.352;149.036;2023-02-20T07:17:47;4.75;;;2.00;;
40022;SDS011;25713;-35.352;149.036;2023-02-20T07:20:16;1.83;;;1.63;;
40022;SDS011;25713;-35.352;149.036;2023-02-20T07:22:49;4.05;;;1.70;;
40022;SDS011;25713;-35.352;149.036;2023-02-20T07:25:22;3.72;;;1.70;;
40022;SDS011;25713;-35.352;149.036;2023-02-20T07:27:52;3.50;;;1.80;;
40022;SDS011;25713;-35.352;149.036;2023-02-20T07:30:21;2.28;;;1.50;;
40022;SDS011;25713;-35.352;149.036;2023-02-20T07:32:51;3.58;;;1.98;;
40022;SDS011;25713;-35.352;149.036;2023-02-20T07:35:20;2.50;;;1.80;;
40022;SDS011;25713;-35.352;149.036;2023-02-20T07:37:49;5.50;;;1.70;;
40022;SDS011;25713;-35.352;149.036;2023-02-20T07:40:19;3.28;;;2.03;;
40022;SDS011;25713;-35.352;149.036;2023-02-20T07:42:50;3.17;;;1.77;;
40022;SDS011;25713;-35.352;149.036;2023-02-20T07:45:22;1.77;;;1.67;;
40022;SDS011;25713;-35.352;149.036;2023-02-20T07:47:52;3.47;;;1.70;;
40022;SDS011;25713;-35.352;149.036;2023-02-20T07:50:21;1.92;;;1.75;;
40022;SDS011;25713;-35.352;149.036;2023-02-20T07:52:51;5.88;;;1.95;;
40022;SDS011;25713;-35.352;149.036;2023-02-20T07:55:20;3.55;;;1.95;;
40022;SDS011;25713;-35.352;149.036;2023-02-20T07:57:53;1.95;;;1.70;;
40022;SDS011;25713;-35.352;149.036;2023-02-20T08:00:22;3.53;;;1.80;;
40022;SDS011;25713;-35.352;149.036;2023-02-20T08:02:53;4.15;;;1.92;;
40022;SDS011;25713;-35.352;149.036;2023-02-20T08:05:23;4.88;;;2.05;;
40022;SDS011;25713;-35.352;149.036;2023-02-20T08:07:53;2.75;;;2.15;;
40022;SDS011;25713;-35.352;149.036;2023-02-20T08:10:26;3.80;;;2.40;;
40022;SDS011;25713;-35.352;149.036;2023-02-20T08:12:55;2.88;;;2.10;;
40022;SDS011;25713;-35.352;149.036;2023-02-20T08:15:25;2.00;;;1.85;;
40022;SDS011;25713;-35.352;149.036;2023-02-20T08:17:54;2.05;;;1.88;;
40022;SDS011;25713;-35.352;149.036;2023-02-20T08:20:24;4.22;;;1.98;;
40022;SDS011;25713;-35.352;149.036;2023-02-20T08:22:53;3.53;;;1.90;;
40022;SDS011;25713;-35.352;149.036;2023-02-20T08:25:25;2.35;;;2.00;;
40022;SDS011;25713;-35.352;149.036;2023-02-20T08:27:54;3.10;;;1.90;;
40022;SDS011;25713;-35.352;149.036;2023-02-20T08:30:26;1.92;;;1.77;;
40022;SDS011;25713;-35.352;149.036;2023-02-20T08:32:56;4.07;;;1.70;;
40022;SDS011;25713;-35.352;149.036;2023-02-20T08:35:25;3.05;;;1.98;;
40022;SDS011;25713;-35.352;149.036;2023-02-20T08:37:54;2.45;;;1.80;;
40022;SDS011;25713;-35.352;149.036;2023-02-20T08:40:26;3.50;;;1.95;;
40022;SDS011;25713;-35.352;149.036;2023-02-20T08:42:55;4.30;;;2.03;;
40022;SDS011;25713;-35.352;149.036;2023-02-20T08:45:25;2.08;;;1.90;;
40022;SDS011;25713;-35.352;149.036;2023-02-20T08:47:55;3.38;;;1.92;;
40022;SDS011;25713;-35.352;149.036;2023-02-20T08:50:25;8.60;;;2.28;;
40022;SDS011;25713;-35.352;149.036;2023-02-20T08:52:55;4.03;;;2.20;;
40022;SDS011;25713;-35.352;149.036;2023-02-20T08:55:26;4.55;;;2.10;;
40022;SDS011;25713;-35.352;149.036;2023-02-20T08:57:55;2.28;;;1.88;;
40022;SDS011;25713;-35.352;149.036;2023-02-20T09:00:25;2.72;;;1.95;;
40022;SDS011;25713;-35.352;149.036;2023-02-20T09:02:54;4.43;;;2.22;;
40022;SDS011;25713;-35.352;149.036;2023-02-20T09:05:23;5.18;;;1.63;;
40022;SDS011;25713;-35.352;149.036;2023-02-20T09:07:53;4.35;;;1.92;;
40022;SDS011;25713;-35.352;149.036;2023-02-20T09:10:22;2.30;;;1.80;;
40022;SDS011;25713;-35.352;149.036;2023-02-20T09:12:53;3.10;;;1.75;;
40022;SDS011;25713;-35.352;149.036;2023-02-20T09:15:23;3.92;;;1.80;;
40022;SDS011;25713;-35.352;149.036;2023-02-20T09:17:53;5.20;;;1.80;;
40022;SDS011;25713;-35.352;149.036;2023-02-20T09:20:22;4.88;;;1.70;;
40022;SDS011;25713;-35.352;149.036;2023-02-20T09:22:55;3.47;;;1.83;;
40022;SDS011;25713;-35.352;149.036;2023-02-20T09:25:27;2.60;;;1.77;;
40022;SDS011;25713;-35.352;149.036;2023-02-20T09:27:57;2.55;;;1.63;;
40022;SDS011;25713;-35.352;149.036;2023-02-20T09:30:26;1.98;;;1.70;;
40022;SDS011;25713;-35.352;149.036;2023-02-20T09:32:55;6.28;;;1.83;;
40022;SDS011;25713;-35.352;149.036;2023-02-20T09:35:25;5.75;;;1.70;;
40022;SDS011;25713;-35.352;149.036;2023-02-20T09:37:56;2.10;;;1.88;;
40022;SDS011;25713;-35.352;149.036;2023-02-20T09:40:28;4.20;;;2.13;;
40022;SDS011;25713;-35.352;149.036;2023-02-20T09:45:40;4.37;;;2.60;;
40022;SDS011;25713;-35.352;149.036;2023-02-20T09:48:18;3.63;;;2.50;;
40022;SDS011;25713;-35.352;149.036;2023-02-20T09:51:01;4.00;;;2.70;;
40022;SDS011;25713;-35.352;149.036;2023-02-20T09:53:34;4.38;;;2.88;;
40022;SDS011;25713;-35.352;149.036;2023-02-20T09:56:09;5.45;;;3.30;;
40022;SDS011;25713;-35.352;149.036;2023-02-20T09:58:44;5.05;;;2.95;;
40022;SDS011;25713;-35.352;149.036;2023-02-20T10:01:20;8.20;;;3.85;;
40022;SDS011;25713;-35.352;149.036;2023-02-20T10:03:53;5.85;;;4.10;;
40022;SDS011;25713;-35.352;149.036;2023-02-20T10:06:24;5.80;;;3.53;;
40022;SDS011;25713;-35.352;149.036;2023-02-20T10:08:55;9.02;;;3.97;;
40022;SDS011;25713;-35.352;149.036;2023-02-20T10:11:31;4.30;;;3.65;;
40022;SDS011;25713;-35.352;149.036;2023-02-20T10:14:29;8.55;;;4.25;;
40022;SDS011;25713;-35.352;149.036;2023-02-20T10:17:14;10.07;;;4.13;;
40022;SDS011;25713;-35.352;149.036;2023-02-20T10:19:51;7.57;;;4.15;;
40022;SDS011;25713;-35.352;149.036;2023-02-20T10:22:24;8.93;;;4.45;;
40022;SDS011;25713;-35.352;149.036;2023-02-20T10:25:07;7.63;;;4.60;;
40022;SDS011;25713;-35.352;149.036;2023-02-20T10:27:45;6.88;;;4.07;;
40022;SDS011;25713;-35.352;149.036;2023-02-20T10:30:22;7.82;;;4.97;;
40022;SDS011;25713;-35.352;149.036;2023-02-20T10:32:56;8.35;;;4.53;;
40022;SDS011;25713;-35.352;149.036;2023-02-20T10:35:32;9.70;;;4.88;;
40022;SDS011;25713;-35.352;149.036;2023-02-20T10:38:07;8.75;;;5.10;;
40022;SDS011;25713;-35.352;149.036;2023-02-20T10:40:39;8.00;;;4.70;;
40022;SDS011;25713;-35.352;149.036;2023-02-20T10:43:17;10.25;;;5.10;;
40022;SDS011;25713;-35.352;149.036;2023-02-20T10:45:51;8.45;;;4.68;;
40022;SDS011;25713;-35.352;149.036;2023-02-20T10:48:22;8.75;;;4.97;;
40022;SDS011;25713;-35.352;149.036;2023-02-20T10:51:00;9.18;;;4.80;;
40022;SDS011;25713;-35.352;149.036;2023-02-20T10:53:36;9.88;;;4.93;;
40022;SDS011;25713;-35.352;149.036;2023-02-20T10:56:09;9.20;;;5.05;;
40022;SDS011;25713;-35.352;149.036;2023-02-20T10:58:44;9.32;;;4.63;;
40022;SDS011;25713;-35.352;149.036;2023-02-20T11:01:22;8.88;;;5.15;;
40022;SDS011;25713;-35.352;149.036;2023-02-20T11:03:54;9.88;;;4.85;;
40022;SDS011;25713;-35.352;149.036;2023-02-20T11:06:29;12.32;;;4.68;;
40022;SDS011;25713;-35.352;149.036;2023-02-20T11:09:00;8.93;;;5.28;;
40022;SDS011;25713;-35.352;149.036;2023-02-20T11:11:30;8.80;;;5.38;;
40022;SDS011;25713;-35.352;149.036;2023-02-20T11:14:08;6.80;;;5.13;;
40022;SDS011;25713;-35.352;149.036;2023-02-20T11:16:41;11.05;;;5.00;;
40022;SDS011;25713;-35.352;149.036;2023-02-20T11:19:18;9.68;;;5.45;;
40022;SDS011;25713;-35.352;149.036;2023-02-20T11:21:50;8.57;;;5.53;;
40022;SDS011;25713;-35.352;149.036;2023-02-20T11:24:20;13.30;;;5.68;;
40022;SDS011;25713;-35.352;149.036;2023-02-20T11:26:59;7.90;;;5.72;;
40022;SDS011;25713;-35.352;149.036;2023-02-20T11:29:38;9.73;;;5.28;;
40022;SDS011;25713;-35.352;149.036;2023-02-20T11:35:04;9.80;;;5.35;;
40022;SDS011;25713;-35.352;149.036;2023-02-20T11:37:47;8.00;;;5.50;;
40022;SDS011;25713;-35.352;149.036;2023-02-20T11:40:19;8.57;;;5.60;;
40022;SDS011;25713;-35.352;149.036;2023-02-20T11:42:53;8.38;;;4.82;;
40022;SDS011;25713;-35.352;149.036;2023-02-20T11:45:25;6.72;;;4.97;;
40022;SDS011;25713;-35.352;149.036;2023-02-20T11:48:06;6.07;;;4.95;;
40022;SDS011;25713;-35.352;149.036;2023-02-20T11:50:40;9.18;;;5.78;;
40022;SDS011;25713;-35.352;149.036;2023-02-20T11:53:17;8.05;;;5.28;;
40022;SDS011;25713;-35.352;149.036;2023-02-20T11:55:47;8.60;;;4.85;;
40022;SDS011;25713;-35.352;149.036;2023-02-20T11:58:32;8.13;;;5.47;;
40022;SDS011;25713;-35.352;149.036;2023-02-20T12:01:04;6.90;;;4.85;;
40022;SDS011;25713;-35.352;149.036;2023-02-20T12:03:34;8.57;;;5.40;;
40022;SDS011;25713;-35.352;149.036;2023-02-20T12:09:05;7.20;;;4.78;;
40022;SDS011;25713;-35.352;149.036;2023-02-20T12:11:38;9.45;;;4.78;;
40022;SDS011;25713;-35.352;149.036;2023-02-20T12:14:09;9.88;;;5.43;;
40022;SDS011;25713;-35.352;149.036;2023-02-20T12:16:49;8.43;;;5.18;;
40022;SDS011;25713;-35.352;149.036;2023-02-20T12:19:32;6.95;;;5.20;;
40022;SDS011;25713;-35.352;149.036;2023-02-20T12:22:14;6.72;;;4.93;;
40022;SDS011;25713;-35.352;149.036;2023-02-20T12:24:55;8.90;;;4.97;;
40022;SDS011;25713;-35.352;149.036;2023-02-20T12:27:41;7.45;;;5.20;;
40022;SDS011;25713;-35.352;149.036;2023-02-20T12:30:23;6.55;;;4.72;;
40022;SDS011;25713;-35.352;149.036;2023-02-20T12:33:06;11.60;;;5.30;;
40022;SDS011;25713;-35.352;149.036;2023-02-20T12:35:52;5.57;;;4.57;;
40022;SDS011;25713;-35.352;149.036;2023-02-20T12:38:33;6.22;;;4.40;;
40022;SDS011;25713;-35.352;149.036;2023-02-20T12:41:14;5.93;;;4.93;;
40022;SDS011;25713;-35.352;149.036;2023-02-20T12:43:56;6.38;;;4.50;;
40022;SDS011;25713;-35.352;149.036;2023-02-20T12:46:36;6.38;;;4.53;;
40022;SDS011;25713;-35.352;149.036;2023-02-20T12:49:16;8.23;;;5.10;;
40022;SDS011;25713;-35.352;149.036;2023-02-20T12:52:15;7.38;;;4.80;;
40022;SDS011;25713;-35.352;149.036;2023-02-20T12:55:02;6.57;;;4.55;;
40022;SDS011;25713;-35.352;149.036;2023-02-20T12:57:40;6.03;;;4.70;;
40022;SDS011;25713;-35.352;149.036;2023-02-20T13:00:18;6.57;;;4.63;;
40022;SDS011;25713;-35.352;149.036;2023-02-20T13:02:58;8.85;;;4.82;;
40022;SDS011;25713;-35.352;149.036;2023-02-20T13:05:36;4.68;;;4.05;;
40022;SDS011;25713;-35.352;149.036;2023-02-20T13:08:10;7.20;;;4.20;;
40022;SDS011;25713;-35.352;149.036;2023-02-20T13:10:47;5.85;;;4.45;;
40022;SDS011;25713;-35.352;149.036;2023-02-20T13:13:20;7.50;;;4.30;;
40022;SDS011;25713;-35.352;149.036;2023-02-20T13:15:52;7.20;;;4.82;;
40022;SDS011;25713;-35.352;149.036;2023-02-20T13:18:30;7.90;;;4.22;;
40022;SDS011;25713;-35.352;149.036;2023-02-20T13:21:07;7.45;;;4.50;;
40022;SDS011;25713;-35.352;149.036;2023-02-20T13:23:39;8.93;;;4.32;;
40022;SDS011;25713;-35.352;149.036;2023-02-20T13:29:15;7.00;;;4.20;;
40022;SDS011;25713;-35.352;149.036;2023-02-20T13:31:45;7.10;;;4.18;;
40022;SDS011;25713;-35.352;149.036;2023-02-20T13:34:27;6.93;;;4.13;;
40022;SDS011;25713;-35.352;149.036;2023-02-20T13:37:00;6.53;;;4.63;;
40022;SDS011;25713;-35.352;149.036;2023-02-20T13:39:37;5.93;;;4.00;;
40022;SDS011;25713;-35.352;149.036;2023-02-20T13:48:19;8.00;;;4.50;;
40022;SDS011;25713;-35.352;149.036;2023-02-20T13:54:14;7.68;;;3.85;;
40022;SDS011;25713;-35.352;149.036;2023-02-20T13:56:53;7.25;;;3.88;;
40022;SDS011;25713;-35.352;149.036;2023-02-20T13:59:25;8.30;;;4.10;;
40022;SDS011;25713;-35.352;149.036;2023-02-20T14:01:56;5.75;;;3.72;;
40022;SDS011;25713;-35.352;149.036;2023-02-20T14:04:30;6.75;;;3.75;;
40022;SDS011;25713;-35.352;149.036;2023-02-20T14:07:00;5.30;;;3.85;;
40022;SDS011;25713;-35.352;149.036;2023-02-20T14:09:31;6.00;;;4.03;;
40022;SDS011;25713;-35.352;149.036;2023-02-20T14:12:05;5.80;;;4.00;;
40022;SDS011;25713;-35.352;149.036;2023-02-20T14:14:40;5.45;;;3.60;;
40022;SDS011;25713;-35.352;149.036;2023-02-20T14:17:13;5.25;;;3.92;;
40022;SDS011;25713;-35.352;149.036;2023-02-20T14:19:46;6.00;;;3.90;;
40022;SDS011;25713;-35.352;149.036;2023-02-20T14:22:24;8.93;;;3.80;;
40022;SDS011;25713;-35.352;149.036;2023-02-20T14:27:48;9.27;;;3.83;;
40022;SDS011;25713;-35.352;149.036;2023-02-20T14:30:18;5.13;;;3.67;;
40022;SDS011;25713;-35.352;149.036;2023-02-20T14:32:50;8.82;;;3.60;;
40022;SDS011;25713;-35.352;149.036;2023-02-20T14:35:30;8.15;;;3.90;;
40022;SDS011;25713;-35.352;149.036;2023-02-20T14:38:09;6.05;;;3.88;;
40022;SDS011;25713;-35.352;149.036;2023-02-20T14:40:48;7.22;;;3.78;;
40022;SDS011;25713;-35.352;149.036;2023-02-20T14:43:18;5.20;;;3.58;;
40022;SDS011;25713;-35.352;149.036;2023-02-20T14:45:58;7.72;;;4.10;;
40022;SDS011;25713;-35.352;149.036;2023-02-20T14:48:29;6.45;;;3.58;;
40022;SDS011;25713;-35.352;149.036;2023-02-20T15:52:23;6.25;;;3.70;;
40022;SDS011;25713;-35.352;149.036;2023-02-20T15:54:54;4.93;;;4.00;;
40022;SDS011;25713;-35.352;149.036;2023-02-20T15:57:24;4.95;;;4.03;;
40022;SDS011;25713;-35.352;149.036;2023-02-20T15:59:54;6.03;;;4.10;;
40022;SDS011;25713;-35.352;149.036;2023-02-20T16:02:23;7.20;;;4.35;;
40022;SDS011;25713;-35.352;149.036;2023-02-20T16:04:52;6.35;;;4.00;;
40022;SDS011;25713;-35.352;149.036;2023-02-20T16:07:24;7.15;;;4.10;;
40022;SDS011;25713;-35.352;149.036;2023-02-20T16:09:54;5.45;;;3.67;;
40022;SDS011;25713;-35.352;149.036;2023-02-20T16:12:25;4.22;;;3.83;;
40022;SDS011;25713;-35.352;149.036;2023-02-20T16:17:24;5.35;;;3.88;;
40022;SDS011;25713;-35.352;149.036;2023-02-20T16:19:55;5.90;;;4.00;;